Time;durP1;ratioP1;P1;durP2;ratioP2;P2;SDS_P1;SDS_P2;PMS_P1;PMS_P2;Temp;Humidity;BMP_temperature;BMP_pressure;BME280_temperature;BME280_humidity;BME280_pressure;Samples;Min_cycle;Max_cycle;Signal;HPM_P1;HPM_P2
2022/07/30 00:00:03;;;;;;;3.15;2.03;;;;;23.70;101715.00;;;;5050566;28;20226;-77
2022/07/30 00:02:31;;;;;;;3.92;1.95;;;;;23.60;101710.00;;;;5050642;28;20210;-77
2022/07/30 00:04:59;;;;;;;3.50;1.75;;;;;23.60;101712.00;;;;5050345;28;20215;-77
2022/07/30 00:07:26;;;;;;;3.78;1.90;;;;;23.60;101711.00;;;;5050518;28;20196;-77
2022/07/30 00:09:54;;;;;;;2.97;1.73;;;;;23.50;101705.00;;;;5046709;28;20216;-77
2022/07/30 00:12:21;;;;;;;1.67;1.40;;;;;23.50;101700.00;;;;5031382;28;21056;-77
2022/07/30 00:14:48;;;;;;;2.28;1.73;;;;;23.50;101708.00;;;;5049738;28;20191;-77
2022/07/30 00:17:16;;;;;;;4.68;2.10;;;;;23.50;101707.00;;;;5050114;28;20202;-77
2022/07/30 00:19:43;;;;;;;2.53;1.77;;;;;23.40;101703.00;;;;5048587;28;20219;-77
2022/07/30 00:22:12;;;;;;;2.00;1.55;;;;;23.40;101704.00;;;;5048678;28;20286;-77
2022/07/30 00:24:39;;;;;;;1.77;1.63;;;;;23.40;101702.00;;;;5049461;28;20196;-77
2022/07/30 00:27:06;;;;;;;3.70;2.03;;;;;23.30;101698.00;;;;5044805;28;20201;-77
2022/07/30 00:29:34;;;;;;;2.63;1.60;;;;;23.30;101693.00;;;;5042946;28;20195;-77
2022/07/30 00:32:01;;;;;;;4.50;2.00;;;;;23.30;101697.00;;;;5049682;28;20203;-77
2022/07/30 00:34:28;;;;;;;4.00;2.08;;;;;23.20;101692.00;;;;5048964;28;20218;-77
2022/07/30 00:36:55;;;;;;;1.90;1.65;;;;;23.20;101693.00;;;;5049640;28;20696;-77
2022/07/30 00:39:24;;;;;;;3.13;1.73;;;;;23.20;101690.00;;;;5049147;28;20215;-77
2022/07/30 00:41:57;;;;;;;4.65;1.75;;;;;23.10;101688.00;;;;5049526;28;20207;-77
2022/07/30 00:44:24;;;;;;;2.63;1.65;;;;;23.10;101683.00;;;;5047799;28;20206;-77
2022/07/30 00:46:52;;;;;;;6.82;1.83;;;;;23.10;101686.00;;;;5049054;28;20223;-77
2022/07/30 00:49:19;;;;;;;3.40;1.63;;;;;23.10;101682.00;;;;5049578;28;20678;-77
2022/07/30 00:51:47;;;;;;;3.08;1.58;;;;;23.00;101688.00;;;;5049453;28;20614;-77
2022/07/30 00:54:15;;;;;;;2.03;1.65;;;;;23.00;101687.00;;;;5049037;28;20196;-77
2022/07/30 00:56:44;;;;;;;3.40;1.80;;;;;23.00;101686.00;;;;5048910;28;20265;-77
2022/07/30 00:59:11;;;;;;;3.55;1.70;;;;;23.00;101697.00;;;;5048957;28;20212;-77
2022/07/30 01:01:38;;;;;;;4.82;1.90;;;;;22.90;101690.00;;;;5046146;28;20207;-77
2022/07/30 01:04:10;;;;;;;3.22;1.83;;;;;22.90;101689.00;;;;5049716;28;20202;-77
2022/07/30 01:06:37;;;;;;;2.28;1.67;;;;;22.90;101688.00;;;;5048930;28;20215;-77
2022/07/30 01:09:05;;;;;;;2.63;1.35;;;;;22.80;101686.00;;;;5049038;28;20285;-77
2022/07/30 01:11:36;;;;;;;2.40;1.95;;;;;22.80;101686.00;;;;5049437;28;20203;-77
2022/07/30 01:14:06;;;;;;;3.35;1.75;;;;;22.70;101686.00;;;;5049197;28;20187;-77
2022/07/30 01:16:34;;;;;;;3.72;2.10;;;;;22.70;101684.00;;;;5048948;28;20195;-76
2022/07/30 01:22:06;;;;;;;2.50;1.50;;;;;22.60;101679.00;;;;5001734;28;20270;-77
2022/07/30 01:24:38;;;;;;;1.98;1.63;;;;;22.60;101682.00;;;;5048920;28;20206;-76
2022/07/30 01:27:08;;;;;;;4.97;1.80;;;;;22.60;101680.00;;;;5045673;28;20191;-77
2022/07/30 01:29:37;;;;;;;2.70;1.88;;;;;22.60;101678.00;;;;5048606;28;20200;-76
2022/07/30 01:32:07;;;;;;;3.78;1.83;;;;;22.60;101679.00;;;;5047878;28;20191;-77
2022/07/30 01:34:37;;;;;;;2.42;1.42;;;;;22.50;101682.00;;;;5047572;28;20203;-77
2022/07/30 01:37:08;;;;;;;4.25;2.00;;;;;22.50;101677.00;;;;5044282;28;20200;-76
2022/07/30 01:39:37;;;;;;;2.28;1.50;;;;;22.50;101682.00;;;;5048884;28;20231;-76
2022/07/30 01:42:07;;;;;;;3.72;1.70;;;;;22.40;101683.00;;;;5048946;28;20198;-77
2022/07/30 01:44:36;;;;;;;3.80;1.58;;;;;22.40;101676.00;;;;5047687;28;20203;-77
2022/07/30 01:47:04;;;;;;;3.47;1.85;;;;;22.40;101672.00;;;;5048437;28;20210;-76
2022/07/30 01:49:34;;;;;;;2.55;1.48;;;;;22.40;101677.00;;;;5049160;28;20204;-77
2022/07/30 01:52:03;;;;;;;3.80;1.85;;;;;22.40;101682.00;;;;5044227;28;20196;-76
2022/07/30 01:54:33;;;;;;;1.90;1.50;;;;;22.30;101677.00;;;;5044309;28;20210;-76
2022/07/30 01:57:02;;;;;;;2.65;1.60;;;;;22.30;101676.00;;;;5048153;28;20709;-76
2022/07/30 01:59:34;;;;;;;2.28;1.63;;;;;22.20;101679.00;;;;5048113;28;20247;-76
2022/07/30 02:02:01;;;;;;;2.38;1.77;;;;;22.30;101667.00;;;;5047511;28;20199;-75
2022/07/30 02:04:29;;;;;;;2.00;1.60;;;;;22.20;101675.00;;;;5063722;28;20195;-75
2022/07/30 02:07:02;;;;;;;2.33;1.83;;;;;22.20;101673.00;;;;5048924;28;20228;-76
2022/07/30 02:09:35;;;;;;;3.25;1.90;;;;;22.20;101681.00;;;;5047476;28;20215;-76
2022/07/30 02:14:55;;;;;;;2.20;1.50;;;;;22.10;101673.00;;;;5047618;28;20322;-76
2022/07/30 02:17:28;;;;;;;2.55;1.70;;;;;22.10;101676.00;;;;5047404;28;20208;-76
2022/07/30 02:19:57;;;;;;;3.75;2.17;;;;;22.10;101676.00;;;;5047399;28;20223;-75
2022/07/30 02:22:33;;;;;;;1.30;1.20;;;;;22.00;101678.00;;;;5047457;28;20203;-75
2022/07/30 02:25:02;;;;;;;1.95;1.17;;;;;22.00;101678.00;;;;5048071;28;20741;-75
2022/07/30 02:27:34;;;;;;;2.13;1.70;;;;;22.00;101676.00;;;;5032130;28;20416;-76
2022/07/30 02:30:04;;;;;;;2.60;1.70;;;;;22.00;101674.00;;;;5042435;28;20200;-76
2022/07/30 02:32:40;;;;;;;2.78;2.30;;;;;21.90;101670.00;;;;5048335;28;20207;-76
2022/07/30 02:35:21;;;;;;;3.03;1.85;;;;;21.90;101670.00;;;;5047577;28;20663;-75
2022/07/30 02:37:52;;;;;;;2.42;1.63;;;;;21.90;101674.00;;;;5047930;28;20896;-76
2022/07/30 02:40:21;;;;;;;4.43;2.22;;;;;21.90;101680.00;;;;5046941;28;20226;-76
2022/07/30 02:42:52;;;;;;;3.25;2.00;;;;;21.90;101679.00;;;;5044659;28;20223;-76
2022/07/30 02:45:23;;;;;;;1.98;1.77;;;;;21.90;101672.00;;;;5032395;28;20288;-76
2022/07/30 02:47:55;;;;;;;4.25;2.05;;;;;21.80;101679.00;;;;5047483;28;20212;-76
2022/07/30 02:50:25;;;;;;;4.00;2.00;;;;;21.80;101680.00;;;;5046639;28;20227;-75
2022/07/30 02:52:54;;;;;;;4.80;2.95;;;;;21.80;101682.00;;;;5046379;28;20196;-76
2022/07/30 02:55:22;;;;;;;4.45;2.40;;;;;21.80;101678.00;;;;5046865;28;20258;-76
2022/07/30 02:57:53;;;;;;;3.30;2.20;;;;;21.80;101681.00;;;;5047949;28;20204;-76
2022/07/30 03:00:23;;;;;;;2.97;1.90;;;;;21.80;101672.00;;;;5040069;28;20358;-76
2022/07/30 03:02:51;;;;;;;2.75;2.15;;;;;21.80;101674.00;;;;5030965;28;20573;-76
2022/07/30 03:05:19;;;;;;;2.40;1.90;;;;;21.70;101680.00;;;;5046981;28;20192;-76
2022/07/30 03:07:47;;;;;;;2.40;2.13;;;;;21.70;101682.00;;;;5048097;28;20204;-76
2022/07/30 03:10:15;;;;;;;2.72;2.30;;;;;21.70;101677.00;;;;5046792;28;20196;-76
2022/07/30 03:12:45;;;;;;;3.15;1.85;;;;;21.70;101674.00;;;;5047843;28;20199;-76
2022/07/30 03:15:13;;;;;;;2.47;2.28;;;;;21.70;101679.00;;;;5046342;28;20227;-76
2022/07/30 03:17:45;;;;;;;3.35;2.00;;;;;21.60;101675.00;;;;5040590;28;20208;-76
2022/07/30 03:20:15;;;;;;;3.25;2.33;;;;;21.60;101680.00;;;;5046455;28;20711;-76
2022/07/30 03:22:46;;;;;;;3.60;2.55;;;;;21.60;101686.00;;;;5047274;28;20203;-76
2022/07/30 03:25:16;;;;;;;3.47;2.53;;;;;21.60;101683.00;;;;5046749;28;20249;-76
2022/07/30 03:27:44;;;;;;;3.70;2.40;;;;;21.60;101682.00;;;;5047333;28;20227;-76
2022/07/30 03:30:13;;;;;;;2.40;2.20;;;;;21.50;101680.00;;;;5047161;28;20202;-76
2022/07/30 03:32:42;;;;;;;3.88;2.80;;;;;21.50;101683.00;;;;5047272;28;20950;-76
2022/07/30 03:35:10;;;;;;;4.82;2.50;;;;;21.50;101676.00;;;;5039501;28;20580;-76
2022/07/30 03:37:40;;;;;;;3.35;2.00;;;;;21.50;101682.00;;;;5047254;28;20196;-76
2022/07/30 03:40:08;;;;;;;2.78;2.05;;;;;21.50;101670.00;;;;5047381;28;20227;-76
2022/07/30 03:42:36;;;;;;;3.92;2.33;;;;;21.50;101674.00;;;;5047117;28;20534;-76
2022/07/30 03:45:06;;;;;;;3.17;2.40;;;;;21.40;101681.00;;;;5047202;28;21003;-76
2022/07/30 03:47:37;;;;;;;4.85;3.10;;;;;21.40;101681.00;;;;5046338;28;20199;-76
2022/07/30 03:50:06;;;;;;;4.63;2.78;;;;;21.40;101682.00;;;;5046916;28;20239;-76
2022/07/30 03:52:37;;;;;;;2.85;2.33;;;;;21.40;101682.00;;;;5040967;28;20246;-76
2022/07/30 03:55:06;;;;;;;3.22;2.33;;;;;21.40;101678.00;;;;5050019;28;20212;-76
2022/07/30 03:57:34;;;;;;;3.85;2.65;;;;;21.40;101682.00;;;;5050756;28;20195;-76
2022/07/30 04:00:02;;;;;;;2.65;2.45;;;;;21.30;101684.00;;;;5050751;28;20310;-76
2022/07/30 04:02:29;;;;;;;5.75;2.53;;;;;21.30;101683.00;;;;5050069;28;20218;-76
2022/07/30 04:05:05;;;;;;;4.18;2.58;;;;;21.30;101688.00;;;;5050315;28;20202;-76
2022/07/30 04:07:32;;;;;;;3.90;2.53;;;;;21.30;101685.00;;;;5050238;28;20207;-76
2022/07/30 04:10:00;;;;;;;6.50;3.17;;;;;21.30;101698.00;;;;5036724;28;20286;-76
2022/07/30 04:12:27;;;;;;;6.68;2.67;;;;;21.20;101700.00;;;;5049385;28;20235;-77
2022/07/30 04:14:56;;;;;;;4.13;3.08;;;;;21.20;101700.00;;;;5047059;28;20206;-76
2022/07/30 04:17:27;;;;;;;4.18;2.67;;;;;21.20;101701.00;;;;5050175;28;20203;-76
2022/07/30 04:19:59;;;;;;;3.47;2.47;;;;;21.20;101697.00;;;;5049571;28;20215;-76
2022/07/30 04:22:31;;;;;;;3.85;2.10;;;;;21.10;101697.00;;;;5049747;28;20219;-76
2022/07/30 04:24:59;;;;;;;3.85;2.55;;;;;21.20;101704.00;;;;5046201;28;20681;-76
2022/07/30 04:27:28;;;;;;;4.35;3.20;;;;;21.10;101706.00;;;;5046014;28;20804;-76
2022/07/30 04:29:55;;;;;;;3.10;2.72;;;;;21.10;101706.00;;;;5050443;28;20203;-76
2022/07/30 04:32:23;;;;;;;3.70;2.92;;;;;21.10;101707.00;;;;5049733;28;20216;-76
2022/07/30 04:34:51;;;;;;;4.20;2.60;;;;;21.10;101707.00;;;;5050288;28;20211;-77
2022/07/30 04:37:21;;;;;;;3.75;2.60;;;;;21.10;101713.00;;;;5049563;28;20208;-76
2022/07/30 04:39:52;;;;;;;3.53;2.67;;;;;21.10;101713.00;;;;5049009;28;20219;-76
2022/07/30 04:42:20;;;;;;;4.45;2.85;;;;;21.10;101707.00;;;;5043207;28;20212;-77
2022/07/30 04:44:48;;;;;;;3.20;2.67;;;;;21.10;101702.00;;;;5034197;28;20204;-76
2022/07/30 04:47:16;;;;;;;3.55;3.25;;;;;21.10;101702.00;;;;5049177;28;20200;-76
2022/07/30 04:49:44;;;;;;;5.20;3.40;;;;;21.10;101714.00;;;;5049109;28;20211;-76
2022/07/30 04:52:12;;;;;;;7.88;3.63;;;;;21.10;101713.00;;;;5049477;28;20791;-76
2022/07/30 04:54:43;;;;;;;4.00;3.30;;;;;21.10;101712.00;;;;5049203;28;20207;-76
2022/07/30 04:57:14;;;;;;;5.80;3.08;;;;;21.10;101714.00;;;;5049277;28;20239;-77
2022/07/30 04:59:42;;;;;;;3.63;2.92;;;;;21.20;101716.00;;;;5043360;28;20227;-77
2022/07/30 05:02:11;;;;;;;4.22;3.33;;;;;21.20;101712.00;;;;5049119;28;20200;-76
2022/07/30 05:04:41;;;;;;;4.38;3.75;;;;;21.20;101719.00;;;;5049536;28;20203;-76
2022/07/30 05:07:12;;;;;;;5.50;3.33;;;;;21.30;101720.00;;;;5048809;28;20196;-76
2022/07/30 05:09:40;;;;;;;3.83;3.35;;;;;21.30;101714.00;;;;5049412;28;20196;-76
2022/07/30 05:12:08;;;;;;;3.70;2.95;;;;;21.40;101728.00;;;;5048893;28;20737;-76
2022/07/30 05:14:36;;;;;;;4.63;3.53;;;;;21.40;101724.00;;;;5048703;28;20214;-76
2022/07/30 05:17:04;;;;;;;4.53;3.38;;;;;21.40;101725.00;;;;5037277;28;20227;-76
2022/07/30 05:19:31;;;;;;;4.45;3.60;;;;;21.50;101724.00;;;;5048734;28;20199;-76
2022/07/30 05:21:58;;;;;;;5.38;4.30;;;;;21.50;101723.00;;;;5049098;28;20199;-76
2022/07/30 05:24:26;;;;;;;5.88;3.42;;;;;21.60;101727.00;;;;5048895;28;20204;-77
2022/07/30 05:26:53;;;;;;;4.82;3.50;;;;;21.60;101736.00;;;;5049399;28;20202;-76
2022/07/30 05:29:20;;;;;;;6.22;4.28;;;;;21.60;101733.00;;;;5048060;28;20199;-76
2022/07/30 05:31:49;;;;;;;4.93;3.92;;;;;21.70;101731.00;;;;5049224;28;20239;-76
2022/07/30 05:34:17;;;;;;;6.68;3.78;;;;;21.70;101739.00;;;;5034615;28;20204;-76
2022/07/30 05:36:44;;;;;;;6.00;3.83;;;;;21.80;101733.00;;;;5049138;28;20191;-76
2022/07/30 05:39:12;;;;;;;6.03;4.03;;;;;21.90;101735.00;;;;5048374;28;20204;-77
2022/07/30 05:41:39;;;;;;;5.55;3.97;;;;;22.00;101735.00;;;;5048710;28;20223;-77
2022/07/30 05:44:06;;;;;;;4.78;3.90;;;;;22.00;101731.00;;;;5048271;28;20199;-76
2022/07/30 05:46:34;;;;;;;5.43;3.83;;;;;22.10;101735.00;;;;5048282;28;20199;-76
2022/07/30 05:49:02;;;;;;;4.30;3.75;;;;;22.20;101739.00;;;;5048386;28;20195;-76
2022/07/30 05:51:30;;;;;;;5.65;3.55;;;;;22.20;101745.00;;;;5039401;28;20204;-77
2022/07/30 05:53:57;;;;;;;5.53;3.65;;;;;22.30;101749.00;;;;5042813;28;20191;-76
2022/07/30 05:56:24;;;;;;;5.03;3.63;;;;;22.40;101752.00;;;;5033810;28;20238;-76
2022/07/30 05:58:52;;;;;;;4.15;3.38;;;;;22.50;101758.00;;;;5048780;28;20196;-77
2022/07/30 06:01:19;;;;;;;4.53;4.13;;;;;22.60;101758.00;;;;5048421;28;20223;-76
2022/07/30 06:03:47;;;;;;;3.95;3.55;;;;;22.60;101758.00;;;;5048481;28;20283;-76
2022/07/30 06:06:16;;;;;;;4.43;3.58;;;;;22.70;101761.00;;;;5048245;28;20286;-77
2022/07/30 06:08:43;;;;;;;4.28;3.42;;;;;22.80;101761.00;;;;5041956;28;20231;-76
2022/07/30 06:11:11;;;;;;;4.45;3.90;;;;;22.90;101759.00;;;;5047522;28;20687;-77
2022/07/30 06:13:38;;;;;;;3.92;3.47;;;;;22.90;101757.00;;;;5048370;28;20665;-77
2022/07/30 06:16:06;;;;;;;6.78;3.53;;;;;23.00;101764.00;;;;5046695;28;20192;-76
2022/07/30 06:18:33;;;;;;;7.03;3.53;;;;;23.10;101762.00;;;;5047381;28;20195;-77
2022/07/30 06:21:00;;;;;;;7.20;3.95;;;;;23.20;101767.00;;;;5047508;28;20601;-77
2022/07/30 06:23:29;;;;;;;4.80;3.10;;;;;23.30;101766.00;;;;5047728;28;20195;-77
2022/07/30 06:25:56;;;;;;;5.10;3.25;;;;;23.40;101764.00;;;;5047793;28;20214;-77
2022/07/30 06:28:23;;;;;;;3.55;2.95;;;;;23.40;101765.00;;;;5048184;28;20195;-77
2022/07/30 06:30:51;;;;;;;5.07;2.55;;;;;23.50;101773.00;;;;5048532;28;20195;-77
2022/07/30 06:33:18;;;;;;;7.60;3.22;;;;;23.60;101763.00;;;;5048188;28;20203;-77
2022/07/30 06:35:45;;;;;;;3.80;2.92;;;;;23.70;101766.00;;;;5047869;28;20207;-77
2022/07/30 06:38:12;;;;;;;4.85;2.65;;;;;23.80;101770.00;;;;5047503;28;20200;-77
2022/07/30 06:40:41;;;;;;;4.72;2.72;;;;;23.90;101778.00;;;;5046617;28;20211;-77
2022/07/30 06:43:08;;;;;;;4.50;2.22;;;;;24.00;101771.00;;;;5034101;28;20207;-77
2022/07/30 06:45:36;;;;;;;3.60;2.63;;;;;24.10;101777.00;;;;5047729;28;20214;-77
2022/07/30 06:48:03;;;;;;;2.95;1.80;;;;;24.20;101774.00;;;;5046902;28;20561;-77
2022/07/30 06:50:30;;;;;;;3.53;1.77;;;;;24.20;101777.00;;;;5047488;28;20199;-77
2022/07/30 06:52:58;;;;;;;3.60;2.30;;;;;24.30;101774.00;;;;5048161;28;20204;-77
2022/07/30 06:55:25;;;;;;;3.58;1.90;;;;;24.40;101775.00;;;;5046169;28;20219;-77
2022/07/30 06:57:54;;;;;;;2.75;1.83;;;;;24.50;101779.00;;;;5044636;28;20195;-76
2022/07/30 07:00:21;;;;;;;2.58;2.13;;;;;24.50;101770.00;;;;5037245;28;20226;-77
2022/07/30 07:02:48;;;;;;;1.88;1.67;;;;;24.60;101768.00;;;;5047673;28;20214;-77
2022/07/30 07:05:15;;;;;;;2.88;2.05;;;;;24.70;101779.00;;;;5046304;28;20206;-76
2022/07/30 07:07:43;;;;;;;4.78;2.00;;;;;24.70;101769.00;;;;5048166;28;20213;-77
2022/07/30 07:10:11;;;;;;;2.42;2.05;;;;;24.70;101772.00;;;;5047436;28;20203;-77
2022/07/30 07:12:38;;;;;;;3.83;2.25;;;;;24.80;101773.00;;;;5047587;28;20215;-77
2022/07/30 07:15:08;;;;;;;5.13;2.08;;;;;24.90;101775.00;;;;5044304;28;20651;-77
2022/07/30 07:17:35;;;;;;;4.32;2.03;;;;;25.00;101774.00;;;;5047498;28;20649;-77
2022/07/30 07:20:06;;;;;;;3.97;1.55;;;;;25.10;101781.00;;;;5046891;28;20210;-77
2022/07/30 07:22:33;;;;;;;1.98;1.40;;;;;25.20;101785.00;;;;5046911;28;20203;-77
2022/07/30 07:25:00;;;;;;;5.18;1.77;;;;;25.20;101783.00;;;;5047350;28;21168;-77
2022/07/30 07:27:28;;;;;;;4.60;1.85;;;;;25.30;101790.00;;;;5047557;28;20575;-77
2022/07/30 07:29:55;;;;;;;3.97;2.03;;;;;25.40;101785.00;;;;5050288;28;20210;-77
2022/07/30 07:32:23;;;;;;;4.65;1.65;;;;;25.60;101785.00;;;;5044113;28;20208;-77
2022/07/30 07:34:51;;;;;;;8.95;2.10;;;;;25.60;101787.00;;;;5044967;28;20211;-77
2022/07/30 07:37:18;;;;;;;3.90;1.63;;;;;25.70;101795.00;;;;5051258;28;20203;-77
2022/07/30 07:39:45;;;;;;;2.03;1.55;;;;;25.70;101795.00;;;;5046412;28;20556;-77
2022/07/30 07:42:13;;;;;;;4.78;2.05;;;;;25.70;101799.00;;;;5047296;28;20224;-77
2022/07/30 07:44:40;;;;;;;2.03;1.67;;;;;25.70;101798.00;;;;5051696;28;20202;-76
2022/07/30 07:47:07;;;;;;;4.03;2.30;;;;;25.80;101797.00;;;;5051481;28;20199;-77
2022/07/30 07:49:36;;;;;;;4.00;1.77;;;;;25.80;101799.00;;;;5044627;28;20196;-76
2022/07/30 07:52:03;;;;;;;4.40;1.70;;;;;25.90;101788.00;;;;5042780;28;20192;-76
2022/07/30 07:54:30;;;;;;;2.33;1.52;;;;;26.00;101793.00;;;;5046219;28;20678;-77
2022/07/30 07:56:58;;;;;;;3.53;2.25;;;;;26.10;101805.00;;;;5045271;28;20794;-76
2022/07/30 07:59:26;;;;;;;6.75;2.03;;;;;26.20;101799.00;;;;5049106;28;20211;-77
2022/07/30 08:01:53;;;;;;;2.00;1.75;;;;;26.20;101800.00;;;;5050809;28;20222;-76
2022/07/30 08:04:20;;;;;;;3.22;2.10;;;;;26.20;101801.00;;;;5050731;28;20206;-77
2022/07/30 08:06:49;;;;;;;3.47;2.35;;;;;26.30;101795.00;;;;5049531;28;20211;-76
2022/07/30 08:09:16;;;;;;;4.28;2.15;;;;;26.30;101805.00;;;;5050081;28;20203;-76
2022/07/30 08:11:43;;;;;;;2.80;2.10;;;;;26.40;101800.00;;;;5050768;28;20195;-76
2022/07/30 08:14:11;;;;;;;3.25;2.00;;;;;26.50;101801.00;;;;5049801;28;20196;-77
2022/07/30 08:16:38;;;;;;;3.10;2.30;;;;;26.50;101797.00;;;;5049213;28;20666;-76
2022/07/30 08:19:05;;;;;;;3.33;2.20;;;;;26.60;101795.00;;;;5050559;28;20203;-77
2022/07/30 08:21:32;;;;;;;2.67;2.13;;;;;26.70;101793.00;;;;5049518;28;20234;-78
2022/07/30 08:24:01;;;;;;;4.85;2.10;;;;;26.80;101789.00;;;;5038676;28;20192;-76
2022/07/30 08:26:28;;;;;;;1.70;1.60;;;;;26.90;101791.00;;;;5046862;28;20196;-77
2022/07/30 08:28:55;;;;;;;2.22;1.80;;;;;27.00;101795.00;;;;5034446;28;20207;-77
2022/07/30 08:31:23;;;;;;;4.78;1.90;;;;;27.10;101802.00;;;;5049327;28;20203;-76
2022/07/30 08:33:50;;;;;;;1.80;1.60;;;;;27.20;101794.00;;;;5049748;28;20203;-77
2022/07/30 08:36:17;;;;;;;2.78;1.80;;;;;27.30;101798.00;;;;5049140;28;20195;-77
2022/07/30 08:38:44;;;;;;;3.80;1.75;;;;;27.30;101787.00;;;;5050404;28;20211;-77
2022/07/30 08:41:13;;;;;;;2.35;1.70;;;;;27.40;101793.00;;;;5035235;28;20235;-77
2022/07/30 08:43:41;;;;;;;3.53;1.80;;;;;27.50;101786.00;;;;5034267;28;20203;-77
2022/07/30 08:46:10;;;;;;;3.60;1.60;;;;;27.60;101784.00;;;;5049328;28;20192;-77
2022/07/30 08:48:38;;;;;;;2.55;1.98;;;;;27.70;101788.00;;;;5049907;28;20206;-77
2022/07/30 08:51:06;;;;;;;4.45;1.85;;;;;27.80;101793.00;;;;5048472;28;20199;-78
2022/07/30 08:53:34;;;;;;;2.15;1.77;;;;;27.80;101793.00;;;;5049506;28;20211;-77
2022/07/30 08:56:01;;;;;;;2.63;1.77;;;;;28.00;101793.00;;;;5049053;28;20238;-77
2022/07/30 08:58:33;;;;;;;1.83;1.65;;;;;28.00;101794.00;;;;5033796;28;20208;-77
2022/07/30 09:01:01;;;;;;;3.58;1.60;;;;;28.20;101792.00;;;;5049090;28;20686;-77
2022/07/30 09:03:28;;;;;;;1.83;1.20;;;;;28.30;101796.00;;;;5049005;28;20261;-78
2022/07/30 09:05:56;;;;;;;1.20;1.10;;;;;28.40;101795.00;;;;5049172;28;20192;-77
2022/07/30 09:08:23;;;;;;;2.55;1.48;;;;;28.50;101786.00;;;;5049115;28;20544;-77
2022/07/30 09:10:51;;;;;;;1.63;1.20;;;;;28.60;101798.00;;;;5048791;28;20204;-77
2022/07/30 09:13:25;;;;;;;2.92;1.50;;;;;28.60;101802.00;;;;5048809;28;20195;-76
2022/07/30 09:15:54;;;;;;;1.30;1.20;;;;;28.70;101811.00;;;;5044375;28;20207;-76
2022/07/30 09:18:30;;;;;;;1.55;1.30;;;;;28.80;101814.00;;;;5049361;28;20461;-77
2022/07/30 09:21:00;;;;;;;1.23;1.13;;;;;28.90;101816.00;;;;5048387;28;20199;-76
2022/07/30 09:23:28;;;;;;;3.38;1.25;;;;;29.00;101825.00;;;;5048478;28;20211;-78
2022/07/30 09:25:55;;;;;;;1.75;0.85;;;;;29.10;101816.00;;;;5049013;28;20202;-77
2022/07/30 09:28:29;;;;;;;1.70;0.80;;;;;29.10;101820.00;;;;5048520;28;20208;-77
2022/07/30 09:30:59;;;;;;;1.65;1.23;;;;;29.20;101816.00;;;;5043979;28;20250;-78
2022/07/30 09:33:34;;;;;;;2.90;1.40;;;;;29.30;101818.00;;;;5047105;28;20554;-78
2022/07/30 09:36:02;;;;;;;1.63;1.00;;;;;29.40;101817.00;;;;5047117;28;20192;-77
2022/07/30 09:38:41;;;;;;;1.63;1.00;;;;;29.50;101821.00;;;;5046845;28;20206;-78
2022/07/30 09:41:08;;;;;;;1.67;1.13;;;;;29.60;101819.00;;;;5046750;28;20206;-78
2022/07/30 09:43:43;;;;;;;2.97;1.30;;;;;29.60;101824.00;;;;5046932;28;20206;-78
2022/07/30 09:46:12;;;;;;;2.40;1.13;;;;;29.70;101823.00;;;;5047068;28;20195;-78
2022/07/30 09:48:39;;;;;;;1.45;0.90;;;;;29.90;101817.00;;;;5042810;28;20195;-78
2022/07/30 09:51:07;;;;;;;3.95;1.20;;;;;29.90;101822.00;;;;5045728;28;20196;-78
2022/07/30 09:53:35;;;;;;;1.35;0.95;;;;;30.00;101819.00;;;;5046867;28;20207;-78
2022/07/30 09:56:22;;;;;;;1.95;1.10;;;;;30.10;101808.00;;;;5046786;28;20239;-78
2022/07/30 09:58:49;;;;;;;1.48;1.10;;;;;30.20;101816.00;;;;5047048;28;20212;-78
2022/07/30 10:01:18;;;;;;;1.70;1.35;;;;;30.30;101816.00;;;;5046470;28;20199;-77
2022/07/30 10:03:46;;;;;;;1.77;1.30;;;;;30.40;101801.00;;;;5047690;28;20192;-77
2022/07/30 10:06:13;;;;;;;1.85;1.00;;;;;30.40;101807.00;;;;5037538;28;20200;-78
2022/07/30 10:08:43;;;;;;;1.92;1.00;;;;;30.50;101817.00;;;;5048577;28;20196;-78
2022/07/30 10:11:13;;;;;;;1.63;0.90;;;;;30.60;101806.00;;;;5047858;28;20572;-77
2022/07/30 10:13:41;;;;;;;2.35;1.25;;;;;30.70;101808.00;;;;5047997;28;20191;-78
2022/07/30 10:16:09;;;;;;;1.10;0.75;;;;;30.70;101802.00;;;;5047547;28;20202;-78
2022/07/30 10:18:41;;;;;;;0.75;0.70;;;;;30.80;101800.00;;;;5048551;28;20200;-78
2022/07/30 10:21:08;;;;;;;1.85;0.90;;;;;30.90;101793.00;;;;5047230;28;20214;-77
2022/07/30 10:23:37;;;;;;;1.45;0.98;;;;;30.90;101791.00;;;;5031112;28;20242;-78
2022/07/30 10:26:04;;;;;;;1.58;0.95;;;;;31.00;101789.00;;;;5044272;28;20199;-77
2022/07/30 10:28:31;;;;;;;1.88;0.90;;;;;31.10;101787.00;;;;5048438;28;20207;-78
2022/07/30 10:30:59;;;;;;;0.95;0.88;;;;;31.20;101795.00;;;;5047996;28;20187;-78
2022/07/30 10:33:28;;;;;;;1.58;0.80;;;;;31.30;101802.00;;;;5045506;28;20199;-77
2022/07/30 10:35:57;;;;;;;2.42;0.93;;;;;31.30;101797.00;;;;5047845;28;20206;-77
2022/07/30 10:38:31;;;;;;;1.92;1.00;;;;;31.30;101801.00;;;;5046824;28;20203;-77
2022/07/30 10:41:05;;;;;;;7.20;1.20;;;;;31.30;101803.00;;;;5044456;28;20254;-76
2022/07/30 10:43:54;;;;;;;1.13;0.70;;;;;31.30;101803.00;;;;5047582;28;20225;-77
2022/07/30 10:46:32;;;;;;;1.60;1.00;;;;;31.40;101799.00;;;;5046393;28;20211;-77
2022/07/30 10:49:09;;;;;;;2.03;0.98;;;;;31.30;101799.00;;;;5027967;28;20206;-78
2022/07/30 10:51:46;;;;;;;1.02;0.70;;;;;31.40;101809.00;;;;5031584;28;20278;-77
2022/07/30 10:54:39;;;;;;;0.95;0.60;;;;;31.30;101814.00;;;;5047419;28;20197;-78
2022/07/30 10:57:11;;;;;;;1.08;0.65;;;;;31.40;101809.00;;;;5033929;28;20240;-77
2022/07/30 11:00:10;;;;;;;1.85;0.80;;;;;31.40;101805.00;;;;5033075;28;20191;-77
2022/07/30 11:02:37;;;;;;;2.33;1.08;;;;;31.50;101802.00;;;;5049955;28;20223;-77
2022/07/30 11:05:27;;;;;;;1.10;0.98;;;;;31.40;101803.00;;;;5053897;28;20630;-78
2022/07/30 11:08:16;;;;;;;2.03;0.90;;;;;31.60;101808.00;;;;5048301;28;20754;-78
2022/07/30 11:10:44;;;;;;;1.25;0.95;;;;;31.60;101807.00;;;;5033975;28;20208;-77
2022/07/30 11:13:11;;;;;;;0.80;0.73;;;;;31.60;101807.00;;;;5034333;28;20207;-77
2022/07/30 11:15:56;;;;;;;1.65;0.90;;;;;31.50;101807.00;;;;5051917;28;21022;-77
2022/07/30 11:18:24;;;;;;;1.20;0.82;;;;;31.60;101811.00;;;;5053607;28;20958;-77
2022/07/30 11:21:14;;;;;;;0.93;0.73;;;;;31.50;101814.00;;;;5037087;28;20597;-77
2022/07/30 11:23:44;;;;;;;1.38;0.88;;;;;31.60;101808.00;;;;5043810;28;20230;-77
2022/07/30 11:26:37;;;;;;;0.93;0.65;;;;;31.60;101816.00;;;;5053459;28;20203;-78
2022/07/30 11:29:05;;;;;;;1.30;0.88;;;;;31.60;101808.00;;;;5053689;28;20202;-78
2022/07/30 11:31:36;;;;;;;2.25;0.70;;;;;31.60;101802.00;;;;5050196;28;20198;-77
2022/07/30 11:34:26;;;;;;;1.42;0.82;;;;;31.40;101809.00;;;;5053853;28;20580;-77
2022/07/30 11:37:09;;;;;;;1.00;0.70;;;;;31.50;101796.00;;;;5054809;28;20198;-77
2022/07/30 11:40:12;;;;;;;0.90;0.80;;;;;31.50;101797.00;;;;5053227;28;20199;-77
2022/07/30 11:42:41;;;;;;;1.10;0.57;;;;;31.60;101798.00;;;;5033560;28;20644;-77
2022/07/30 11:45:25;;;;;;;3.05;0.95;;;;;31.60;101802.00;;;;5050574;28;20218;-78
2022/07/30 11:47:55;;;;;;;1.83;0.90;;;;;31.70;101799.00;;;;5042148;28;20199;-77
2022/07/30 11:50:25;;;;;;;1.33;0.98;;;;;31.70;101798.00;;;;5043086;28;20574;-77
2022/07/30 11:52:54;;;;;;;1.38;0.68;;;;;31.70;101801.00;;;;5054353;28;20199;-78
2022/07/30 11:55:29;;;;;;;0.88;0.73;;;;;31.60;101803.00;;;;5053065;28;20211;-78
2022/07/30 11:57:57;;;;;;;1.30;0.77;;;;;31.70;101798.00;;;;5053319;28;20202;-77
2022/07/30 12:00:26;;;;;;;1.27;0.82;;;;;31.70;101798.00;;;;5049648;28;20203;-77
2022/07/30 12:02:53;;;;;;;1.02;0.70;;;;;31.60;101801.00;;;;5054008;28;20230;-76
2022/07/30 12:05:25;;;;;;;2.50;0.65;;;;;31.50;101804.00;;;;5046261;28;20199;-77
2022/07/30 12:07:58;;;;;;;1.73;0.63;;;;;31.50;101797.00;;;;5053142;28;20187;-77
2022/07/30 12:10:26;;;;;;;0.73;0.57;;;;;31.50;101803.00;;;;5043586;28;20677;-78
2022/07/30 12:13:05;;;;;;;4.90;1.20;;;;;31.50;101797.00;;;;5053813;28;20199;-77
2022/07/30 12:15:35;;;;;;;0.50;0.47;;;;;31.50;101802.00;;;;5049371;28;20191;-77
2022/07/30 12:18:02;;;;;;;0.70;0.57;;;;;31.50;101803.00;;;;5050627;28;20200;-77
2022/07/30 12:20:30;;;;;;;1.33;1.00;;;;;31.40;101804.00;;;;5049722;28;20195;-77
2022/07/30 12:22:58;;;;;;;3.45;1.05;;;;;31.40;101802.00;;;;5035421;28;20219;-77
2022/07/30 12:25:26;;;;;;;1.88;0.90;;;;;31.40;101809.00;;;;5049930;28;20198;-77